createdAt,value
2022-08-17T00:02:26.439Z,17.99
2022-08-17T00:04:55.175Z,17.98
2022-08-17T00:07:23.282Z,17.90
2022-08-17T00:09:50.476Z,17.84
2022-08-17T00:12:43.564Z,17.80
2022-08-17T00:15:10.328Z,17.78
2022-08-17T00:17:38.456Z,17.78
2022-08-17T00:20:06.324Z,17.77
2022-08-17T00:22:36.473Z,17.77
2022-08-17T00:25:07.569Z,17.72
2022-08-17T00:27:35.745Z,17.64
2022-08-17T00:30:04.331Z,17.58
2022-08-17T00:33:22.838Z,17.58
2022-08-17T00:35:27.800Z,17.59
2022-08-17T00:37:55.666Z,17.60
2022-08-17T00:40:24.760Z,17.62
2022-08-17T00:42:52.155Z,17.61
2022-08-17T00:45:20.618Z,17.61
2022-08-17T00:47:49.627Z,17.56
2022-08-17T00:50:19.082Z,17.51
2022-08-17T00:52:54.876Z,17.46
2022-08-17T00:55:23.011Z,17.47
2022-08-17T00:57:55.531Z,17.48
2022-08-17T01:00:28.288Z,17.48
2022-08-17T01:03:00.058Z,17.47
2022-08-17T01:05:31.050Z,17.46
2022-08-17T01:08:00.241Z,17.44
2022-08-17T01:10:58.384Z,17.42
2022-08-17T01:13:25.267Z,17.41
2022-08-17T01:15:59.315Z,17.39
2022-08-17T01:18:27.456Z,17.37
2022-08-17T01:20:56.178Z,17.35
2022-08-17T01:23:25.352Z,17.33
2022-08-17T01:25:56.266Z,17.30
2022-08-17T01:28:33.500Z,17.27
2022-08-17T01:31:13.134Z,17.22
2022-08-17T01:33:40.406Z,17.18
2022-08-17T01:36:08.403Z,17.13
2022-08-17T01:38:36.825Z,17.09
2022-08-17T01:41:09.681Z,17.05
2022-08-17T01:43:46.193Z,17.02
2022-08-17T01:46:21.371Z,16.98
2022-08-17T01:48:48.608Z,16.96
2022-08-17T01:51:16.273Z,16.92
2022-08-17T01:53:49.178Z,16.89
2022-08-17T01:56:20.077Z,16.88
2022-08-17T01:58:47.377Z,16.87
2022-08-17T02:01:20.271Z,16.84
2022-08-17T02:03:59.488Z,16.82
2022-08-17T02:06:31.643Z,16.80
2022-08-17T02:09:16.977Z,16.78
2022-08-17T02:11:44.692Z,16.79
2022-08-17T02:14:13.613Z,16.79
2022-08-17T02:16:41.453Z,16.79
2022-08-17T02:19:16.065Z,16.77
2022-08-17T02:21:47.154Z,16.76
2022-08-17T02:25:00.688Z,16.75
2022-08-17T02:27:07.767Z,16.72
2022-08-17T02:29:34.695Z,16.71
2022-08-17T02:32:01.993Z,16.70
2022-08-17T02:34:30.324Z,16.71
2022-08-17T02:36:57.290Z,16.71
2022-08-17T02:39:24.354Z,16.71
2022-08-17T02:42:01.752Z,16.67
2022-08-17T02:44:39.057Z,16.65
2022-08-17T02:47:09.492Z,16.61
2022-08-17T02:49:36.800Z,16.60
2022-08-17T02:52:05.850Z,16.59
2022-08-17T02:54:40.445Z,16.60
2022-08-17T02:57:09.498Z,16.60
2022-08-17T02:59:36.507Z,16.58
2022-08-17T03:02:05.090Z,16.55
2022-08-17T03:04:33.804Z,16.50
2022-08-17T03:07:03.727Z,16.47
2022-08-17T03:09:31.105Z,16.44
2022-08-17T03:12:14.258Z,16.43
2022-08-17T03:14:43.370Z,16.43
2022-08-17T03:17:12.834Z,16.44
2022-08-17T03:19:45.096Z,16.44
2022-08-17T03:22:35.537Z,16.42
2022-08-17T03:24:59.015Z,16.39
2022-08-17T03:27:26.342Z,16.35
2022-08-17T03:29:53.476Z,16.31
2022-08-17T03:32:20.879Z,16.30
2022-08-17T03:34:47.939Z,16.28
2022-08-17T03:37:15.187Z,16.28
2022-08-17T03:39:43.063Z,16.29
2022-08-17T03:42:31.612Z,16.30
2022-08-17T03:45:01.425Z,16.32
2022-08-17T03:47:44.693Z,16.32
2022-08-17T03:50:28.057Z,16.30
2022-08-17T03:53:11.851Z,16.27
2022-08-17T03:55:55.159Z,16.26
2022-08-17T03:58:22.353Z,16.26
2022-08-17T04:00:50.963Z,16.27
2022-08-17T04:03:18.865Z,16.29
2022-08-17T04:05:45.732Z,16.31
2022-08-17T04:08:12.946Z,16.34
2022-08-17T04:10:44.977Z,16.36
2022-08-17T04:13:13.176Z,16.35
2022-08-17T04:15:40.505Z,16.36
2022-08-17T04:18:07.724Z,16.40
2022-08-17T04:20:37.994Z,16.46
2022-08-17T04:23:09.860Z,16.54
2022-08-17T04:25:40.242Z,16.60
2022-08-17T04:28:09.022Z,16.67
2022-08-17T04:30:45.391Z,16.74
2022-08-17T04:33:15.788Z,16.79
2022-08-17T04:35:45.886Z,16.83
2022-08-17T04:38:15.921Z,16.88
2022-08-17T04:40:59.717Z,16.94
2022-08-17T04:43:27.928Z,17.02
2022-08-17T04:45:59.559Z,17.11
2022-08-17T04:48:35.388Z,17.22
2022-08-17T04:51:05.937Z,17.36
2022-08-17T04:53:32.967Z,17.46
2022-08-17T04:55:59.972Z,17.59
2022-08-17T04:58:26.966Z,17.74
2022-08-17T05:00:53.865Z,17.89
2022-08-17T05:03:20.736Z,18.02
2022-08-17T05:05:50.007Z,18.15
2022-08-17T05:08:19.960Z,18.27
2022-08-17T05:10:48.139Z,18.40
2022-08-17T05:13:18.356Z,18.55
2022-08-17T05:15:48.065Z,18.70
2022-08-17T05:18:16.967Z,18.86
2022-08-17T05:20:44.436Z,19.03
2022-08-17T05:23:14.102Z,19.14
2022-08-17T05:25:47.763Z,19.36
2022-08-17T05:28:15.420Z,19.53
2022-08-17T05:30:44.870Z,19.70
2022-08-17T05:33:20.421Z,19.89
2022-08-17T05:35:50.246Z,20.11
2022-08-17T05:38:19.402Z,20.31
2022-08-17T05:40:46.782Z,20.51
2022-08-17T05:43:18.323Z,20.67
2022-08-17T05:46:09.490Z,20.72
2022-08-17T05:48:40.826Z,20.98
2022-08-17T05:51:23.752Z,21.18
2022-08-17T05:54:06.577Z,21.37
2022-08-17T05:56:48.245Z,21.61
2022-08-17T05:59:22.118Z,21.83
2022-08-17T06:02:03.147Z,21.99
2022-08-17T06:04:54.483Z,22.17
2022-08-17T06:07:26.138Z,22.32
2022-08-17T06:09:57.131Z,22.49
2022-08-17T06:12:41.319Z,22.63
2022-08-17T06:15:27.769Z,22.80
2022-08-17T06:17:59.399Z,23.04
2022-08-17T06:20:32.389Z,23.24
2022-08-17T06:23:07.488Z,23.46
2022-08-17T06:25:39.350Z,23.65
2022-08-17T06:28:13.694Z,23.83
2022-08-17T06:30:58.613Z,23.99
2022-08-17T06:33:35.749Z,24.21
2022-08-17T06:36:18.546Z,24.44
2022-08-17T06:39:01.636Z,24.78
2022-08-17T06:41:37.894Z,25.10
2022-08-17T06:44:43.463Z,25.39
2022-08-17T06:47:13.784Z,25.64
2022-08-17T06:49:55.204Z,25.92
2022-08-17T06:52:55.676Z,26.20
2022-08-17T06:55:34.540Z,26.33
2022-08-17T06:58:15.792Z,26.45
2022-08-17T07:00:47.504Z,26.66
2022-08-17T07:03:21.244Z,26.90
2022-08-17T07:05:53.016Z,27.09
2022-08-17T07:08:38.278Z,27.19
2022-08-17T07:11:14.543Z,27.26
2022-08-17T07:13:51.345Z,27.35
2022-08-17T07:16:25.648Z,27.46
2022-08-17T07:18:54.859Z,27.66
2022-08-17T07:21:28.982Z,27.85
2022-08-17T07:24:28.134Z,27.95
2022-08-17T07:27:08.897Z,28.17
2022-08-17T07:29:41.737Z,28.32
2022-08-17T07:32:11.655Z,28.51
2022-08-17T07:35:00.068Z,28.70
2022-08-17T07:37:27.457Z,29.00
2022-08-17T07:40:15.568Z,29.21
2022-08-17T07:42:45.135Z,29.48
2022-08-17T07:45:35.348Z,29.66
2022-08-17T07:48:17.981Z,29.98
2022-08-17T07:50:49.740Z,30.31
2022-08-17T07:53:24.711Z,30.65
2022-08-17T07:55:54.005Z,31.00
2022-08-17T07:58:23.982Z,31.38
2022-08-17T08:01:11.238Z,31.78
2022-08-17T08:03:43.552Z,32.33
2022-08-17T08:06:21.966Z,32.86
2022-08-17T08:08:53.912Z,33.44
2022-08-17T08:11:39.249Z,33.95
2022-08-17T08:14:29.567Z,34.36
2022-08-17T08:17:04.100Z,34.86
2022-08-17T08:19:33.919Z,35.14
2022-08-17T08:22:07.776Z,35.32
2022-08-17T08:25:07.532Z,35.79
2022-08-17T08:27:43.130Z,36.29
2022-08-17T08:30:15.316Z,36.76
2022-08-17T08:32:50.593Z,36.97
2022-08-17T08:35:23.576Z,37.29
2022-08-17T08:37:58.928Z,37.71
2022-08-17T08:40:38.938Z,37.98
2022-08-17T08:43:22.853Z,38.24
2022-08-17T08:45:58.442Z,38.66
2022-08-17T08:48:52.977Z,39.06
2022-08-17T08:51:52.824Z,39.33
2022-08-17T08:54:37.043Z,39.43
2022-08-17T08:57:26.699Z,39.68
2022-08-17T09:00:15.599Z,39.92
2022-08-17T09:03:14.414Z,40.12
2022-08-17T09:05:45.362Z,40.31
2022-08-17T09:08:20.498Z,40.52
2022-08-17T09:11:00.185Z,40.73
2022-08-17T09:13:54.195Z,40.84
2022-08-17T09:16:37.895Z,41.09
2022-08-17T09:19:13.003Z,41.32
2022-08-17T09:21:48.542Z,41.26
2022-08-17T09:24:32.065Z,40.99
2022-08-17T09:27:18.492Z,40.77
2022-08-17T09:29:54.625Z,40.41
2022-08-17T09:32:34.474Z,40.23
2022-08-17T09:35:06.556Z,40.19
2022-08-17T09:37:43.407Z,40.16
2022-08-17T09:40:19.897Z,40.25
2022-08-17T09:42:52.527Z,40.33
2022-08-17T09:45:26.833Z,40.41
2022-08-17T09:48:14.421Z,40.46
2022-08-17T09:51:04.614Z,40.36
2022-08-17T09:53:36.750Z,40.06
2022-08-17T09:56:14.148Z,39.71
2022-08-17T09:59:03.579Z,39.40
2022-08-17T10:01:43.648Z,39.17
2022-08-17T10:04:32.210Z,38.99
2022-08-17T10:07:02.993Z,38.83
2022-08-17T10:09:33.877Z,38.70
2022-08-17T10:12:20.512Z,38.58
2022-08-17T10:15:08.224Z,38.41
2022-08-17T10:17:54.185Z,37.77
2022-08-17T10:20:26.672Z,37.16
2022-08-17T10:23:12.970Z,36.87
2022-08-17T10:26:03.855Z,36.46
2022-08-17T10:28:40.932Z,36.09
2022-08-17T10:31:33.661Z,35.95
2022-08-17T10:34:06.089Z,35.87
2022-08-17T10:36:55.093Z,35.82
2022-08-17T10:39:27.076Z,35.87
2022-08-17T10:42:01.703Z,35.85
2022-08-17T10:44:45.701Z,35.69
2022-08-17T10:47:16.889Z,35.49
2022-08-17T10:49:49.717Z,35.34
2022-08-17T10:52:20.685Z,34.85
2022-08-17T10:55:09.048Z,34.45
2022-08-17T10:57:39.302Z,34.17
2022-08-17T11:00:16.127Z,34.13
2022-08-17T11:02:51.361Z,34.26
2022-08-17T11:05:42.949Z,34.47
2022-08-17T11:08:18.190Z,34.62
2022-08-17T11:10:53.610Z,34.70
2022-08-17T11:13:22.931Z,34.76
2022-08-17T11:16:08.539Z,34.72
2022-08-17T11:18:42.865Z,34.75
2022-08-17T11:21:16.610Z,34.90
2022-08-17T11:24:02.963Z,34.90
2022-08-17T11:26:34.889Z,34.76
2022-08-17T11:29:09.735Z,34.51
2022-08-17T11:31:45.172Z,34.46
2022-08-17T11:34:19.823Z,34.49
2022-08-17T11:37:01.820Z,34.61
2022-08-17T11:39:44.546Z,34.69
2022-08-17T11:42:28.381Z,35.00
2022-08-17T11:44:58.792Z,35.34
2022-08-17T11:48:23.910Z,35.68
2022-08-17T11:51:30.035Z,36.20
2022-08-17T11:54:30.603Z,36.93
2022-08-17T11:56:50.431Z,37.48
2022-08-17T11:59:33.316Z,37.84
2022-08-17T12:02:02.872Z,38.24
2022-08-17T12:04:33.334Z,38.41
2022-08-17T12:07:17.781Z,38.20
2022-08-17T12:09:48.657Z,37.75
2022-08-17T12:12:19.433Z,37.36
2022-08-17T12:15:10.708Z,37.44
2022-08-17T12:17:52.275Z,37.96
2022-08-17T12:20:33.074Z,38.43
2022-08-17T12:23:20.195Z,38.93
2022-08-17T12:25:56.959Z,39.20
2022-08-17T12:28:28.089Z,39.61
2022-08-17T12:31:00.471Z,40.17
2022-08-17T12:33:28.974Z,40.60
2022-08-17T12:36:00.946Z,40.75
2022-08-17T12:38:32.373Z,40.43
2022-08-17T12:41:21.994Z,39.90
2022-08-17T12:43:58.829Z,39.32
2022-08-17T12:46:25.824Z,39.29
2022-08-17T12:48:59.061Z,39.51
2022-08-17T12:51:29.378Z,39.78
2022-08-17T12:53:56.402Z,40.01
2022-08-17T12:56:23.555Z,40.14
2022-08-17T12:58:54.639Z,40.39
2022-08-17T13:01:25.199Z,40.72
2022-08-17T13:03:55.383Z,41.08
2022-08-17T13:06:33.907Z,41.40
2022-08-17T13:09:35.594Z,41.74
2022-08-17T13:12:05.175Z,42.08
2022-08-17T13:14:33.426Z,42.32
2022-08-17T13:17:08.334Z,42.44
2022-08-17T13:19:48.179Z,42.67
2022-08-17T13:22:15.066Z,43.01
2022-08-17T13:24:53.263Z,43.37
2022-08-17T13:27:24.031Z,43.62
2022-08-17T13:29:55.932Z,43.85
2022-08-17T13:32:33.603Z,43.80
2022-08-17T13:35:14.139Z,43.32
2022-08-17T13:37:59.203Z,42.37
2022-08-17T13:40:30.974Z,41.40
2022-08-17T13:42:58.654Z,40.46
2022-08-17T13:45:36.103Z,39.89
2022-08-17T13:48:19.864Z,39.53
2022-08-17T13:51:05.915Z,39.43
2022-08-17T13:53:51.402Z,39.61
2022-08-17T13:56:50.120Z,39.84
2022-08-17T13:59:52.681Z,40.19
2022-08-17T14:02:17.592Z,40.59
2022-08-17T14:04:46.104Z,40.92
2022-08-17T14:07:13.614Z,41.21
2022-08-17T14:09:47.355Z,41.32
2022-08-17T14:12:17.825Z,41.11
2022-08-17T14:14:44.934Z,41.00
2022-08-17T14:17:13.144Z,41.14
2022-08-17T14:19:40.238Z,41.22
2022-08-17T14:22:11.773Z,41.00
2022-08-17T14:24:44.747Z,40.66
2022-08-17T14:27:12.157Z,40.27
2022-08-17T14:29:41.369Z,39.88
2022-08-17T14:32:18.873Z,39.41
2022-08-17T14:34:47.419Z,38.81
2022-08-17T14:37:14.306Z,38.22
2022-08-17T14:39:41.193Z,37.61
2022-08-17T14:42:08.690Z,37.02
2022-08-17T14:44:37.028Z,36.52
2022-08-17T14:47:05.050Z,36.12
2022-08-17T14:49:32.026Z,35.81
2022-08-17T14:52:00.546Z,35.54
2022-08-17T14:54:33.524Z,35.29
2022-08-17T14:57:23.322Z,35.05
2022-08-17T14:59:54.811Z,34.83
2022-08-17T15:02:29.544Z,34.64
2022-08-17T15:05:05.404Z,34.46
2022-08-17T15:07:32.429Z,34.30
2022-08-17T15:10:02.512Z,34.14
2022-08-17T15:12:34.054Z,33.99
2022-08-17T15:15:04.771Z,33.87
2022-08-17T15:17:44.281Z,33.71
2022-08-17T15:20:18.112Z,33.55
2022-08-17T15:22:49.923Z,33.42
2022-08-17T15:25:19.119Z,33.30
2022-08-17T15:27:47.584Z,33.19
2022-08-17T15:30:15.696Z,33.08
2022-08-17T15:32:51.263Z,32.96
2022-08-17T15:35:27.416Z,32.85
2022-08-17T15:37:58.451Z,32.75
2022-08-17T15:40:25.499Z,32.65
2022-08-17T15:42:53.065Z,32.55
2022-08-17T15:45:24.996Z,32.43
2022-08-17T15:47:52.813Z,32.30
2022-08-17T15:50:20.140Z,32.18
2022-08-17T15:52:47.739Z,32.03
2022-08-17T15:55:15.277Z,31.91
2022-08-17T15:57:42.449Z,31.77
2022-08-17T16:00:10.198Z,31.65
2022-08-17T16:03:45.049Z,31.52
2022-08-17T16:05:30.228Z,31.38
2022-08-17T16:07:59.733Z,31.26
2022-08-17T16:10:34.734Z,31.14
2022-08-17T16:13:04.475Z,31.02
2022-08-17T16:15:32.338Z,30.89
2022-08-17T16:17:59.320Z,30.77
2022-08-17T16:20:26.523Z,30.65
2022-08-17T16:22:54.173Z,30.55
2022-08-17T16:25:38.833Z,30.45
2022-08-17T16:28:17.107Z,30.34
2022-08-17T16:30:44.090Z,30.23
2022-08-17T16:33:11.728Z,30.13
2022-08-17T16:35:39.031Z,30.02
2022-08-17T16:38:07.226Z,29.90
2022-08-17T16:40:36.014Z,29.81
2022-08-17T16:43:07.087Z,29.69
2022-08-17T16:45:36.793Z,29.56
2022-08-17T16:48:04.551Z,29.45
2022-08-17T16:50:33.929Z,29.34
2022-08-17T16:53:06.837Z,29.24
2022-08-17T16:55:35.825Z,29.13
2022-08-17T16:58:05.488Z,29.02
2022-08-17T17:00:33.876Z,28.91
2022-08-17T17:03:20.543Z,28.78
2022-08-17T17:06:07.473Z,28.65
2022-08-17T17:08:44.393Z,28.49
2022-08-17T17:11:34.211Z,28.35
2022-08-17T17:14:05.655Z,28.19
2022-08-17T17:16:45.765Z,28.07
2022-08-17T17:19:34.835Z,27.91
2022-08-17T17:22:20.398Z,27.78
2022-08-17T17:24:55.734Z,27.60
2022-08-17T17:27:39.994Z,27.41
2022-08-17T17:30:12.435Z,27.23
2022-08-17T17:32:46.120Z,27.04
2022-08-17T17:35:21.001Z,26.87
2022-08-17T17:37:50.331Z,26.70
2022-08-17T17:40:23.238Z,26.50
2022-08-17T17:43:09.475Z,26.31
2022-08-17T17:45:53.130Z,26.06
2022-08-17T17:48:20.260Z,25.92
2022-08-17T17:51:02.482Z,25.75
2022-08-17T17:53:44.537Z,25.62
2022-08-17T17:56:40.270Z,25.47
2022-08-17T17:59:26.887Z,25.34
2022-08-17T18:02:09.837Z,25.24
2022-08-17T18:04:46.248Z,25.16
2022-08-17T18:07:37.303Z,25.10
2022-08-17T18:10:19.561Z,25.04
2022-08-17T18:13:14.179Z,24.98
2022-08-17T18:15:51.334Z,24.90
2022-08-17T18:18:19.635Z,24.83
2022-08-17T18:20:56.050Z,24.76
2022-08-17T18:23:27.950Z,24.68
2022-08-17T18:25:58.280Z,24.59
2022-08-17T18:28:34.546Z,24.51
2022-08-17T18:31:09.784Z,24.38
2022-08-17T18:33:39.537Z,24.33
2022-08-17T18:36:07.498Z,24.24
2022-08-17T18:38:37.653Z,24.13
2022-08-17T18:41:19.433Z,24.02
2022-08-17T18:44:01.510Z,23.83
2022-08-17T18:46:35.455Z,23.75
2022-08-17T18:49:08.048Z,23.59
2022-08-17T18:51:42.336Z,23.46
2022-08-17T18:54:22.087Z,23.37
2022-08-17T18:56:50.740Z,23.29
2022-08-17T18:59:34.046Z,23.19
2022-08-17T19:02:27.321Z,23.08
2022-08-17T19:05:07.905Z,22.95
2022-08-17T19:07:38.215Z,22.81
2022-08-17T19:10:21.267Z,22.66
2022-08-17T19:12:55.546Z,22.59
2022-08-17T19:15:34.834Z,22.51
2022-08-17T19:18:05.822Z,22.44
2022-08-17T19:20:39.003Z,22.34
2022-08-17T19:23:24.339Z,22.23
2022-08-17T19:25:57.915Z,22.10
2022-08-17T19:28:32.717Z,21.95
2022-08-17T19:31:08.498Z,21.78
2022-08-17T19:33:35.572Z,21.66
2022-08-17T19:36:10.147Z,21.60
2022-08-17T19:38:53.202Z,21.52
2022-08-17T19:41:33.475Z,21.43
2022-08-17T19:44:23.942Z,21.35
2022-08-17T19:47:13.637Z,21.23
2022-08-17T19:49:46.799Z,21.13
2022-08-17T19:52:22.614Z,21.09
2022-08-17T19:54:59.101Z,21.04
2022-08-17T19:57:37.159Z,20.97
2022-08-17T20:00:15.716Z,20.92
2022-08-17T20:02:48.723Z,20.85
2022-08-17T20:05:23.073Z,20.79
2022-08-17T20:08:09.135Z,20.71
2022-08-17T20:10:55.497Z,20.62
2022-08-17T20:13:32.969Z,20.55
2022-08-17T20:16:02.565Z,20.50
2022-08-17T20:18:37.954Z,20.44
2022-08-17T20:21:27.017Z,20.40
2022-08-17T20:24:03.924Z,20.37
2022-08-17T20:26:49.087Z,20.37
2022-08-17T20:29:31.940Z,20.38
2022-08-17T20:32:17.763Z,20.35
2022-08-17T20:34:47.739Z,20.28
2022-08-17T20:37:15.371Z,20.22
2022-08-17T20:39:44.621Z,20.14
2022-08-17T20:42:29.438Z,20.10
2022-08-17T20:45:01.933Z,19.98
2022-08-17T20:47:35.474Z,19.97
2022-08-17T20:50:10.455Z,19.91
2022-08-17T20:52:56.183Z,19.87
2022-08-17T20:55:51.543Z,19.81
2022-08-17T21:00:41.283Z,19.71
2022-08-17T21:03:24.270Z,19.65
2022-08-17T21:05:59.889Z,19.57
2022-08-17T21:08:53.876Z,19.51
2022-08-17T21:11:57.304Z,19.46
2022-08-17T21:14:20.255Z,19.44
2022-08-17T21:17:02.852Z,19.43
2022-08-17T21:20:10.332Z,19.39
2022-08-17T21:23:02.335Z,19.36
2022-08-17T21:25:46.594Z,19.35
2022-08-17T21:28:34.141Z,19.32
2022-08-17T21:31:09.017Z,19.30
2022-08-17T21:33:39.226Z,19.28
2022-08-17T21:36:17.274Z,19.23
2022-08-17T21:38:48.045Z,19.19
2022-08-17T21:41:22.857Z,19.14
2022-08-17T21:43:51.570Z,19.09
2022-08-17T21:46:30.657Z,19.04
2022-08-17T21:49:12.243Z,19.03
2022-08-17T21:51:51.971Z,19.01
2022-08-17T21:54:38.913Z,19.00
2022-08-17T21:57:15.742Z,18.99
2022-08-17T21:59:44.470Z,18.98
2022-08-17T22:02:22.394Z,18.98
2022-08-17T22:05:07.365Z,18.98
2022-08-17T22:07:42.964Z,18.96
2022-08-17T22:10:29.949Z,18.93
2022-08-17T22:13:16.521Z,18.90
2022-08-17T22:15:47.708Z,18.88
2022-08-17T22:18:20.675Z,18.84
2022-08-17T22:20:51.796Z,18.80
2022-08-17T22:23:42.679Z,18.75
2022-08-17T22:26:13.461Z,18.66
2022-08-17T22:28:45.782Z,18.61
2022-08-17T22:31:18.388Z,18.57
2022-08-17T22:33:50.188Z,18.54
2022-08-17T22:36:25.147Z,18.51
2022-08-17T22:38:57.478Z,18.49
2022-08-17T22:41:42.260Z,18.45
2022-08-17T22:44:36.521Z,18.41
2022-08-17T22:47:11.315Z,18.34
2022-08-17T22:49:53.236Z,18.31
2022-08-17T22:52:29.942Z,18.27
2022-08-17T22:55:29.706Z,18.25
2022-08-17T22:58:13.256Z,18.23
2022-08-17T23:00:45.306Z,18.17
2022-08-17T23:03:19.141Z,18.09
2022-08-17T23:06:03.578Z,18.06
2022-08-17T23:08:31.577Z,18.04
2022-08-17T23:11:00.489Z,18.00
2022-08-17T23:13:28.290Z,18.04
2022-08-17T23:15:55.173Z,18.04
2022-08-17T23:18:23.571Z,18.02
2022-08-17T23:20:50.728Z,18.01
2022-08-17T23:23:23.399Z,17.99
2022-08-17T23:25:50.831Z,17.98
2022-08-17T23:28:19.197Z,17.95
2022-08-17T23:30:48.578Z,17.92
2022-08-17T23:33:26.784Z,17.90
2022-08-17T23:35:54.265Z,17.91
2022-08-17T23:38:22.104Z,17.91
2022-08-17T23:40:49.072Z,17.89
2022-08-17T23:43:23.732Z,17.87
2022-08-17T23:45:53.669Z,17.85
2022-08-17T23:48:36.031Z,17.83
2022-08-17T23:51:08.843Z,17.78
2022-08-17T23:53:40.399Z,17.79
2022-08-17T23:56:11.156Z,17.81
2022-08-17T23:58:42.435Z,17.79
